Portada
METAR-TAF:

METAR-TAF

Aeropuertos :

Dakar, Senegal

Aeropuerto Internacional de Dakar-Yoff/Léopold Sédar Senghor

latitud: 14-44N, longitud: 017-30W, altitud: 27 m

Observación

El informe se hizo hace 29 minutos, a las 19:00 UTC
Viento 8 kt del sur-suroeste
Temperatura 29°C
Humedad 74%
Presión 1012 hPa
Visibilidad 10 km o más
Nubes dispersas a una altura de 1300 ft

METAR: GOOY 171900Z 21008KT 9999 SCT013 29/24 Q1012 NOSIG

Hora: 19:29 (19:29 UTC)

Pronóstico

El informe se hizo hace 1 hora y 59 minutos, a las 17:30 UTC
Pronóstico válido del 17 a las 18 UTC al 18 a las 24 UTC
Viento 8 kt del oeste-suroeste
Visibilidad 10 km o más
Nubes dispersas a una altura de 1200 ft
Probabilidad 30% :
Temporalmente
del 17 a las 22 UTC al 18 a las 02 UTC
Visibilidad: 4000 m
Cielo nuboso a una altura de 1000 ft
Escasas nubes a una altura de 2000 ft, Cumulonimbus.
tormenta, lluvia

TAF: GOOY 171730Z 1718/1824 24008KT 9999 SCT012 PROB30 TEMPO 1722/1802 4000 TSRA BKN010 FEW020CB

Observaciones y pronósticos meteorológicos de más de 4000 aeropuertos (mensajes METAR y TAF).

Los puntos amarillos y rojos representan las estaciones disponibles.

Ponga el ratón en el punto deseado para ver el nombre de la estación.

Haga clic para ver las observaciones y los pronósticos meteorológicos.

Para cambiar el mapa : haga clic en los botones verdes con una cruz de color negro para hacer un zoom, en el botón verde con un guión para alejar o en las flechas verdes para mapas adyacentes.


METAR-TAF: